Time;durP1;ratioP1;P1;durP2;ratioP2;P2;SDS_P1;SDS_P2;PMS_P1;PMS_P2;Temp;Humidity;BMP_temperature;BMP_pressure;BME280_temperature;BME280_humidity;BME280_pressure;Samples;Min_cycle;Max_cycle;Signal;HPM_P1;HPM_P2
2022/05/23 00:01:40;;;;;;;2.40;2.30;;;;;;;10.28;87.45;98599.64;1757597;81;21076;-76
2022/05/23 00:04:06;;;;;;;3.33;2.70;;;;;;;10.26;87.56;98597.09;1757426;81;21062;-75
2022/05/23 00:06:33;;;;;;;6.90;2.50;;;;;;;10.24;87.58;98598.95;1757423;81;21050;-76
2022/05/23 00:09:00;;;;;;;5.12;2.92;;;;;;;10.23;87.63;98607.74;1757835;81;21329;-75
2022/05/23 00:11:28;;;;;;;5.65;2.70;;;;;;;10.24;87.58;98609.46;1758057;80;21534;-76
2022/05/23 00:13:55;;;;;;;5.17;2.20;;;;;;;10.23;87.53;98608.59;1759194;80;20926;-76
2022/05/23 00:16:26;;;;;;;3.15;2.37;;;;;;;10.24;87.53;98613.41;1730756;82;21047;-76
2022/05/23 00:18:53;;;;;;;3.62;2.60;;;;;;;10.24;87.47;98610.77;1757515;81;21762;-76
2022/05/23 00:21:19;;;;;;;5.30;2.60;;;;;;;10.25;87.37;98611.62;1730663;82;21074;-76
2022/05/23 00:23:46;;;;;;;2.33;2.12;;;;;;;10.22;87.34;98607.34;1757495;81;21087;-75
2022/05/23 00:26:16;;;;;;;2.87;2.67;;;;;;;10.22;87.32;98611.28;1730556;82;21573;-75
2022/05/23 00:28:43;;;;;;;2.83;2.62;;;;;;;10.22;87.29;98618.73;1757321;81;21073;-76
2022/05/23 00:31:11;;;;;;;4.03;2.20;;;;;;;10.23;87.22;98619.58;1730793;82;21106;-76
2022/05/23 00:36:27;;;;;;;3.75;2.85;;;;;;;10.19;87.15;98626.77;1731092;82;21742;-76
2022/05/23 00:38:55;;;;;;;4.78;2.67;;;;;;;10.17;87.15;98630.37;1757213;81;21636;-76
2022/05/23 00:44:31;;;;;;;3.77;2.40;;;;;;;10.17;87.16;98633.88;1730905;82;21181;-76
2022/05/23 00:47:01;;;;;;;2.33;2.12;;;;;;;10.15;87.16;98633.54;1756726;81;21548;-76
2022/05/23 00:49:36;;;;;;;7.70;2.52;;;;;;;10.13;87.18;98632.30;1756694;81;21172;-76
2022/05/23 00:52:06;;;;;;;2.55;2.35;;;;;;;10.14;87.17;98631.38;1725558;83;21107;-76
2022/05/23 00:54:38;;;;;;;2.92;2.72;;;;;;;10.14;87.20;98634.48;1756848;81;21612;-76
2022/05/23 00:57:05;;;;;;;3.10;2.65;;;;;;;10.14;87.21;98635.80;1756869;81;21038;-76
2022/05/23 00:59:33;;;;;;;5.05;2.40;;;;;;;10.13;87.22;98638.87;1725647;83;21573;-75
2022/05/23 01:02:01;;;;;;;4.55;2.80;;;;;;;10.14;87.17;98634.02;1756830;81;21643;-76
2022/05/23 01:04:37;;;;;;;2.70;2.52;;;;;;;10.14;87.09;98639.27;1757016;81;21069;-76
2022/05/23 01:07:04;;;;;;;2.62;2.33;;;;;;;10.12;87.10;98640.25;1733578;82;21653;-75
2022/05/23 01:09:32;;;;;;;2.67;2.45;;;;;;;10.09;87.12;98636.48;1725255;82;21577;-76
2022/05/23 01:11:59;;;;;;;2.77;2.58;;;;;;;10.10;87.10;98635.53;1756864;81;21125;-76
2022/05/23 01:14:26;;;;;;;2.77;2.50;;;;;;;10.10;87.13;98634.22;1757065;81;21057;-76
2022/05/23 01:16:53;;;;;;;2.62;2.40;;;;;;;10.10;87.15;98637.69;1725576;83;20984;-76
2022/05/23 01:19:19;;;;;;;4.10;2.30;;;;;;;10.11;87.12;98645.14;1756785;81;21010;-76
2022/05/23 01:22:02;;;;;;;4.00;2.65;;;;;;;10.11;87.15;98654.34;1756741;81;21022;-76
2022/05/23 01:24:45;;;;;;;3.22;2.27;;;;;;;10.11;87.09;98649.08;1723801;83;21038;-76
2022/05/23 01:27:12;;;;;;;3.58;2.72;;;;;;;10.10;87.12;98656.56;1725336;83;21546;-76
2022/05/23 01:29:44;;;;;;;4.37;2.90;;;;;;;10.08;87.10;98648.75;1725563;83;21011;-76
2022/05/23 01:32:14;;;;;;;;;;;;;;;10.08;87.00;98646.59;1727917;83;21097;-76
2022/05/23 01:34:44;;;;;;;4.62;2.72;;;;;;;10.09;86.92;98658.34;1725056;83;20226;-76
2022/05/23 01:37:12;;;;;;;6.25;2.72;;;;;;;10.04;86.87;98664.28;1724548;83;21081;-76
2022/05/23 01:39:40;;;;;;;4.87;3.40;;;;;;;9.99;86.83;98667.11;1721469;83;22175;-76
2022/05/23 01:42:08;;;;;;;4.20;3.90;;;;;;;9.97;86.85;98673.34;1725332;83;21508;-76
2022/05/23 01:44:35;;;;;;;4.08;3.80;;;;;;;9.91;86.88;98666.61;1725706;83;21096;-76
2022/05/23 01:47:13;;;;;;;12.88;3.98;;;;;;;9.88;86.95;98671.99;1725231;82;21585;-76
2022/05/23 01:49:48;;;;;;;4.47;3.95;;;;;;;9.86;87.02;98665.97;1738488;82;21031;-75
2022/05/23 01:52:17;;;;;;;5.40;4.05;;;;;;;9.88;87.05;98664.11;1736615;82;21252;-76
2022/05/23 01:54:43;;;;;;;5.40;4.15;;;;;;;9.90;87.04;98664.92;1738229;82;21559;-76
2022/05/23 01:57:11;;;;;;;6.53;4.40;;;;;;;9.91;86.98;98663.13;1738506;82;21451;-76
2022/05/23 02:02:25;;;;;;;4.60;4.20;;;;;;;9.89;87.05;98668.45;1738585;82;21965;-76
2022/05/23 02:04:53;;;;;;;9.33;5.15;;;;;;;9.88;87.07;98668.52;1738613;82;21773;-76
2022/05/23 02:07:19;;;;;;;7.87;5.50;;;;;;;9.84;87.08;98673.91;1738242;82;21105;-76
2022/05/23 02:09:49;;;;;;;8.20;4.95;;;;;;;9.80;87.18;98677.61;1738459;82;21491;-76
2022/05/23 02:12:22;;;;;;;9.48;5.05;;;;;;;9.79;87.27;98682.46;1700142;82;21056;-76
2022/05/23 02:14:52;;;;;;;6.70;4.92;;;;;;;9.80;87.29;98680.68;1680299;85;21153;-76
2022/05/23 02:17:23;;;;;;;12.45;5.87;;;;;;;9.78;87.37;98685.16;1677216;85;21248;-76
2022/05/23 02:19:52;;;;;;;11.95;5.50;;;;;;;9.77;87.43;98682.16;1680189;85;21110;-76
2022/05/23 02:22:19;;;;;;;8.85;5.50;;;;;;;9.79;87.40;98685.56;1680325;85;21224;-76
2022/05/23 02:24:47;;;;;;;10.25;6.35;;;;;;;9.81;87.39;98682.39;1679416;85;21169;-76
2022/05/23 02:27:14;;;;;;;16.30;7.83;;;;;;;9.82;87.39;98682.80;1680307;85;21168;-76
2022/05/23 02:29:43;;;;;;;19.48;8.53;;;;;;;9.83;87.40;98689.74;1679962;85;21086;-76
2022/05/23 02:32:10;;;;;;;17.70;8.50;;;;;;;9.82;87.35;98690.68;1654485;85;21244;-77
2022/05/23 02:34:37;;;;;;;21.33;9.53;;;;;;;9.82;87.26;98688.90;1680574;85;21213;-76
2022/05/23 02:37:05;;;;;;;17.90;9.35;;;;;;;9.82;87.19;98692.00;1680393;85;21173;-76
2022/05/23 02:39:45;;;;;;;19.07;8.43;;;;;;;9.79;87.18;98701.32;1678842;85;22063;-76
2022/05/23 02:42:11;;;;;;;14.98;8.63;;;;;;;9.76;87.12;98696.20;1680121;85;22006;-76
2022/05/23 02:44:38;;;;;;;22.45;9.58;;;;;;;9.74;87.10;98699.36;1680239;85;21652;-76
2022/05/23 02:47:07;;;;;;;16.25;9.33;;;;;;;9.75;87.13;98701.92;1719467;82;21058;-76
2022/05/23 02:49:35;;;;;;;20.60;9.48;;;;;;;9.74;87.24;98706.77;1727485;83;21066;-76
2022/05/23 02:52:03;;;;;;;23.85;9.68;;;;;;;9.75;87.36;98716.81;1727641;83;21058;-77
2022/05/23 02:54:31;;;;;;;14.05;9.43;;;;;;;9.76;87.46;98706.70;1727384;83;21131;-76
2022/05/23 02:57:00;;;;;;;21.87;10.28;;;;;;;9.76;87.57;98714.12;1727467;83;21141;-76
2022/05/23 02:59:26;;;;;;;19.45;10.13;;;;;;;9.76;87.63;98715.91;1727439;83;21623;-76
2022/05/23 03:04:42;;;;;;;14.70;8.85;;;;;;;9.78;87.85;98719.30;1727413;83;21632;-76
2022/05/23 03:07:10;;;;;;;11.57;8.00;;;;;;;9.79;87.94;98719.24;1727709;83;21109;-76
2022/05/23 03:09:37;;;;;;;15.70;8.90;;;;;;;9.79;88.04;98717.08;1728567;83;21082;-76
2022/05/23 03:12:08;;;;;;;14.78;8.03;;;;;;;9.78;88.13;98727.19;1727310;83;21109;-76
2022/05/23 03:14:35;;;;;;;12.63;7.67;;;;;;;9.79;88.14;98723.19;1747569;81;21510;-75
2022/05/23 03:17:03;;;;;;;9.90;7.33;;;;;;;9.81;88.15;98727.91;1755915;81;21576;-76
2022/05/23 03:19:30;;;;;;;11.60;7.50;;;;;;;9.83;88.14;98731.78;1756292;81;21760;-76
2022/05/23 03:27:29;;;;;;;14.23;7.25;;;;;;;9.88;87.95;98732.42;1756185;81;22031;-76
2022/05/23 03:29:57;;;;;;;10.82;8.05;;;;;;;9.89;87.92;98735.46;1755349;81;21045;-76
2022/05/23 03:32:26;;;;;;;9.93;6.87;;;;;;;9.92;87.85;98735.77;1754431;81;22158;-75
2022/05/23 03:34:54;;;;;;;7.70;6.90;;;;;;;9.92;87.80;98741.02;1755536;81;21061;-76
2022/05/23 03:37:22;;;;;;;8.23;6.75;;;;;;;9.92;87.64;98743.21;1755991;81;21042;-75
2022/05/23 03:39:50;;;;;;;8.15;6.40;;;;;;;9.93;87.56;98744.90;1755649;81;21077;-75
2022/05/23 03:42:17;;;;;;;9.60;6.62;;;;;;;9.91;87.42;98742.80;1756066;81;21006;-75
2022/05/23 03:44:46;;;;;;;13.72;6.92;;;;;;;9.90;87.41;98742.87;1755478;81;21644;-75
2022/05/23 03:47:13;;;;;;;8.78;6.20;;;;;;;9.86;87.24;98744.78;1752115;81;21066;-76
2022/05/23 03:49:39;;;;;;;8.73;6.60;;;;;;;9.83;87.08;98747.55;1727162;81;20998;-75
2022/05/23 03:52:06;;;;;;;6.35;5.75;;;;;;;9.83;87.11;98744.48;1750603;81;21034;-75
2022/05/23 03:54:34;;;;;;;9.48;6.22;;;;;;;9.85;87.18;98740.00;1727448;81;21076;-75
2022/05/23 03:57:02;;;;;;;10.15;6.30;;;;;;;9.91;87.20;98741.49;1750512;81;21258;-76
2022/05/23 03:59:29;;;;;;;9.63;6.30;;;;;;;9.97;87.16;98749.11;1750936;81;21513;-75
2022/05/23 04:01:57;;;;;;;8.08;6.03;;;;;;;10.01;87.17;98751.98;1750586;81;20998;-76
2022/05/23 04:04:27;;;;;;;8.48;6.17;;;;;;;10.06;87.16;98750.94;1749779;81;21588;-76
2022/05/23 04:07:07;;;;;;;9.73;5.87;;;;;;;10.13;87.13;98749.73;1750557;81;21120;-76
2022/05/23 04:09:36;;;;;;;10.60;6.47;;;;;;;10.19;86.95;98752.09;1750861;81;21125;-76
2022/05/23 04:12:05;;;;;;;9.23;6.58;;;;;;;10.21;86.84;98747.62;1756173;80;21585;-76
2022/05/23 04:14:32;;;;;;;11.33;6.80;;;;;;;10.28;86.86;98746.88;1783494;80;21537;-75
2022/05/23 04:16:58;;;;;;;7.97;6.42;;;;;;;10.31;86.76;98746.27;1783795;80;21124;-75
2022/05/23 04:19:25;;;;;;;12.30;6.17;;;;;;;10.33;86.53;98751.49;1783284;80;21089;-77
2022/05/23 04:21:54;;;;;;;7.05;6.33;;;;;;;10.33;86.50;98752.34;1775624;80;21792;-75
2022/05/23 04:24:22;;;;;;;11.60;6.53;;;;;;;10.36;86.49;98746.94;1782459;80;21125;-75
2022/05/23 04:26:53;;;;;;;8.73;6.28;;;;;;;10.39;86.50;98753.38;1782254;80;21049;-76
2022/05/23 04:29:22;;;;;;;12.75;6.58;;;;;;;10.43;86.15;98746.67;1783483;80;21042;-76
2022/05/23 04:31:48;;;;;;;13.53;6.92;;;;;;;10.45;86.03;98745.66;1783448;80;21062;-76
2022/05/23 04:37:10;;;;;;;14.25;7.03;;;;;;;10.51;86.09;98748.48;1782548;80;21597;-77
2022/05/23 04:39:42;;;;;;;12.28;7.33;;;;;;;10.59;86.45;98755.52;1783328;80;21010;-76
2022/05/23 04:42:10;;;;;;;13.98;6.53;;;;;;;10.66;86.09;98752.15;1783100;80;21082;-76
2022/05/23 04:44:38;;;;;;;15.53;7.58;;;;;;;10.70;85.61;98750.63;1783170;80;20998;-76
2022/05/23 04:49:51;;;;;;;18.67;7.60;;;;;;;10.81;84.55;98750.13;1783186;80;21105;-75
2022/05/23 04:52:38;;;;;;;12.75;7.25;;;;;;;10.91;84.23;98746.13;1783196;80;21498;-76
2022/05/23 04:55:06;;;;;;;12.13;6.33;;;;;;;11.01;83.89;98753.12;1783468;80;21514;-76
2022/05/23 04:57:34;;;;;;;16.20;7.12;;;;;;;11.10;83.37;98752.66;1783108;80;20990;-76
2022/05/23 05:00:06;;;;;;;12.93;7.30;;;;;;;11.23;83.10;98748.09;1783584;80;21489;-76
2022/05/23 05:02:36;;;;;;;14.03;7.10;;;;;;;11.31;81.73;98748.56;1782658;80;21077;-76
2022/05/23 05:05:03;;;;;;;12.05;7.50;;;;;;;11.41;81.21;98753.75;1783353;80;21094;-76
2022/05/23 05:07:34;;;;;;;15.70;7.55;;;;;;;11.50;80.38;98757.25;1783267;80;21058;-77
2022/05/23 05:10:00;;;;;;;12.13;7.58;;;;;;;11.57;79.83;98749.05;1753042;80;21200;-76
2022/05/23 05:12:28;;;;;;;10.55;6.83;;;;;;;11.64;79.27;98757.02;1750693;81;21672;-76
2022/05/23 05:14:55;;;;;;;7.45;5.78;;;;;;;11.72;78.89;98753.53;1750484;81;21358;-77
2022/05/23 05:17:22;;;;;;;9.53;6.10;;;;;;;11.83;78.59;98751.64;1750766;81;21243;-76
2022/05/23 05:19:48;;;;;;;14.10;6.78;;;;;;;11.97;78.37;98760.17;1750642;81;21136;-76
2022/05/23 05:22:35;;;;;;;13.75;7.20;;;;;;;12.06;78.03;98754.44;1751055;81;20990;-76
2022/05/23 05:25:10;;;;;;;18.62;8.63;;;;;;;12.17;76.70;98754.72;1748180;81;21774;-77
2022/05/23 05:27:39;;;;;;;16.32;9.08;;;;;;;12.24;74.60;98760.05;1750326;81;20999;-76
2022/05/23 05:30:08;;;;;;;17.25;9.68;;;;;;;12.29;74.20;98754.98;1750429;81;21043;-76
2022/05/23 05:33:00;;;;;;;21.90;10.45;;;;;;;12.31;74.50;98757.94;1750286;81;21056;-76
2022/05/23 05:35:42;;;;;;;24.10;10.75;;;;;;;12.37;73.74;98758.05;1750543;81;21518;-75
2022/05/23 05:38:19;;;;;;;27.32;12.20;;;;;;;12.38;72.61;98761.09;1737314;81;21844;-76
2022/05/23 05:40:49;;;;;;;29.37;11.18;;;;;;;12.38;73.35;98766.37;1750622;81;21138;-77
2022/05/23 05:43:23;;;;;;;20.70;10.15;;;;;;;12.46;72.64;98768.13;1751179;81;21592;-76
2022/05/23 05:45:53;;;;;;;25.27;10.35;;;;;;;12.56;72.56;98756.61;1750595;81;21027;-75
2022/05/23 05:48:22;;;;;;;21.40;9.75;;;;;;;12.69;71.42;98756.77;1744315;81;21121;-77
2022/05/23 05:50:48;;;;;;;20.97;9.30;;;;;;;12.80;69.35;98760.98;1745703;82;21563;-76
2022/05/23 05:53:22;;;;;;;23.00;9.18;;;;;;;12.87;69.04;98750.94;1745096;82;21081;-76
2022/05/23 05:55:50;;;;;;;21.57;9.63;;;;;;;12.94;68.85;98755.77;1745358;82;21055;-77
2022/05/23 05:58:17;;;;;;;16.45;6.70;;;;;;;13.05;68.59;98757.81;1745691;82;21101;-77
2022/05/23 06:00:46;;;;;;;18.90;6.25;;;;;;;13.12;66.53;98755.67;1745709;82;21625;-76
2022/05/23 06:03:13;;;;;;;18.50;7.17;;;;;;;13.20;67.15;98753.45;1745761;82;21812;-76
2022/05/23 06:11:29;;;;;;;9.53;4.92;;;;;;;13.25;65.20;98767.23;1745681;82;20990;-76
2022/05/23 06:14:09;;;;;;;10.13;5.12;;;;;;;13.20;63.60;98767.50;1724682;82;21522;-77
2022/05/23 06:16:37;;;;;;;9.23;5.15;;;;;;;13.21;64.87;98767.02;1717497;83;21227;-77
2022/05/23 06:19:06;;;;;;;17.35;5.53;;;;;;;13.26;65.16;98764.12;1717565;83;21483;-76
2022/05/23 06:21:34;;;;;;;12.70;5.47;;;;;;;13.28;63.79;98763.55;1717455;83;21015;-76
2022/05/23 06:24:02;;;;;;;10.05;5.20;;;;;;;13.34;64.47;98761.92;1717315;83;20991;-76
2022/05/23 06:26:30;;;;;;;9.98;3.80;;;;;;;13.45;65.48;98760.83;1717289;83;20995;-76
2022/05/23 06:28:59;;;;;;;6.92;4.35;;;;;;;13.56;62.72;98761.51;1681280;83;21082;-76
2022/05/23 06:31:25;;;;;;;9.80;4.08;;;;;;;13.61;63.29;98762.09;1717208;83;21081;-76
2022/05/23 06:33:52;;;;;;;6.92;3.70;;;;;;;13.72;62.67;98759.66;1717323;83;21062;-75
2022/05/23 06:36:21;;;;;;;6.15;3.72;;;;;;;13.86;62.09;98756.67;1717445;83;21058;-76
2022/05/23 06:38:49;;;;;;;17.80;5.35;;;;;;;14.02;62.60;98761.86;1719214;83;21106;-77
2022/05/23 06:41:23;;;;;;;;;;;;;;;14.15;61.53;98765.46;1691840;83;21813;-76
2022/05/23 06:44:06;;;;;;;5.65;2.77;;;;;;;14.17;60.54;98768.02;1715536;83;20197;-76
2022/05/23 06:46:36;;;;;;;6.75;3.67;;;;;;;14.16;60.76;98775.11;1717335;83;21010;-76
2022/05/23 06:49:22;;;;;;;6.42;2.98;;;;;;;14.10;61.33;98767.09;1698019;84;21149;-76
2022/05/23 06:51:52;;;;;;;5.37;2.80;;;;;;;14.12;62.73;98774.45;1672739;85;21143;-76
2022/05/23 06:54:21;;;;;;;6.17;3.08;;;;;;;14.19;61.06;98774.05;1670793;85;21702;-76
2022/05/23 06:56:51;;;;;;;6.58;2.80;;;;;;;14.24;61.34;98774.63;1671054;85;21092;-75
2022/05/23 06:59:19;;;;;;;6.87;2.55;;;;;;;14.25;60.08;98780.30;1670164;85;22000;-75
2022/05/23 07:01:47;;;;;;;8.00;2.72;;;;;;;14.17;60.89;98774.63;1673167;85;21034;-76
2022/05/23 07:04:16;;;;;;;4.40;2.52;;;;;;;14.22;60.97;98775.20;1669509;85;21509;-76
2022/05/23 07:12:28;;;;;;;4.72;2.65;;;;;;;14.44;59.13;98774.27;1680160;83;21575;-76
2022/05/23 07:14:57;;;;;;;5.28;2.83;;;;;;;14.47;59.85;98767.91;1751781;81;21110;-76
2022/05/23 07:17:26;;;;;;;3.37;2.58;;;;;;;14.57;59.41;98770.83;1721147;83;21087;-77
2022/05/23 07:20:11;;;;;;;10.90;3.27;;;;;;;14.65;59.13;98765.94;1693838;84;21167;-75
2022/05/23 07:22:38;;;;;;;8.28;3.25;;;;;;;14.74;58.55;98770.64;1706143;84;21044;-75
2022/05/23 07:25:06;;;;;;;7.17;3.40;;;;;;;14.74;58.35;98767.98;1706463;84;21064;-76
2022/05/23 07:27:33;;;;;;;4.65;3.83;;;;;;;14.70;59.21;98757.72;1705817;84;21000;-76
2022/05/23 07:30:02;;;;;;;8.28;4.30;;;;;;;14.69;58.88;98764.78;1705653;84;21009;-75
2022/05/23 07:32:31;;;;;;;8.00;4.70;;;;;;;14.75;59.02;98771.02;1705680;84;22005;-76
2022/05/23 07:34:58;;;;;;;17.23;5.78;;;;;;;14.87;58.33;98769.39;1705377;84;21512;-75
2022/05/23 07:37:27;;;;;;;11.15;5.83;;;;;;;14.96;57.89;98765.29;1679490;84;21021;-75
2022/05/23 07:39:56;;;;;;;10.68;5.90;;;;;;;15.04;58.01;98763.00;1705730;84;21091;-75
2022/05/23 07:42:35;;;;;;;11.85;7.00;;;;;;;15.10;57.64;98766.58;1705090;84;21071;-76
2022/05/23 07:45:05;;;;;;;14.93;7.92;;;;;;;15.15;56.57;98768.94;1705834;84;21158;-76
2022/05/23 07:47:33;;;;;;;14.83;7.08;;;;;;;15.20;57.28;98771.66;1709581;82;21127;-77
2022/05/23 07:50:09;;;;;;;14.83;6.05;;;;;;;15.31;56.34;98766.12;1715983;82;21976;-76
2022/05/23 07:52:36;;;;;;;9.18;5.58;;;;;;;15.45;56.22;98764.73;1735569;82;21000;-77
2022/05/23 08:00:37;;;;;;;11.65;5.62;;;;;;;15.59;52.18;98763.31;1734479;82;21070;-75
2022/05/23 08:03:16;;;;;;;13.65;5.83;;;;;;;15.64;52.48;98776.28;1733650;82;21055;-76
2022/05/23 08:05:44;;;;;;;16.12;7.97;;;;;;;15.70;52.01;98769.70;1711394;82;21043;-78
2022/05/23 08:08:11;;;;;;;8.28;5.47;;;;;;;15.81;51.56;98772.52;1735611;82;21039;-75
2022/05/23 08:10:38;;;;;;;12.58;7.08;;;;;;;15.94;51.49;98776.52;1735747;82;21203;-75
2022/05/23 08:13:11;;;;;;;15.78;7.37;;;;;;;16.03;51.54;98773.70;1735476;82;21087;-77
2022/05/23 08:15:41;;;;;;;19.40;7.92;;;;;;;16.13;51.95;98757.50;1735528;82;21552;-75
2022/05/23 08:18:09;;;;;;;18.23;8.15;;;;;;;16.19;50.61;98766.37;1735131;82;21008;-76
2022/05/23 08:20:38;;;;;;;20.12;7.33;;;;;;;16.19;52.29;98758.41;1735623;82;21059;-75
2022/05/23 08:23:05;;;;;;;18.55;7.62;;;;;;;16.34;52.56;98762.64;1721243;82;21781;-75
2022/05/23 08:25:36;;;;;;;19.67;8.43;;;;;;;16.50;50.63;98756.23;1707840;83;21506;-74
2022/05/23 08:28:03;;;;;;;17.65;7.62;;;;;;;16.55;51.37;98758.09;1709410;83;21509;-75
2022/05/23 08:30:31;;;;;;;17.17;7.70;;;;;;;16.50;50.11;98758.41;1709661;83;21449;-75
2022/05/23 08:32:59;;;;;;;12.03;7.30;;;;;;;16.40;50.04;98758.70;1707069;83;21165;-74
2022/05/23 08:35:28;;;;;;;14.93;7.40;;;;;;;16.30;49.63;98755.83;1709590;83;21222;-75
2022/05/23 08:38:01;;;;;;;12.15;7.15;;;;;;;16.27;50.51;98753.42;1709469;83;21058;-77
2022/05/23 08:41:08;;;;;;;19.12;7.55;;;;;;;16.32;51.40;98751.29;1706081;83;21037;-77
2022/05/23 08:44:12;;;;;;;13.43;5.85;;;;;;;16.37;50.64;98744.80;1709441;83;21096;-77
2022/05/23 08:47:11;;;;;;;6.92;5.40;;;;;;;16.33;50.10;98754.30;1708138;83;21596;-76
2022/05/23 08:49:47;;;;;;;8.63;4.25;;;;;;;16.20;49.97;98753.95;1709415;83;21629;-77
2022/05/23 08:52:39;;;;;;;;;;;;;;;16.03;50.60;98760.43;1697700;83;21817;-77
2022/05/23 08:55:22;;;;;;;5.72;3.75;;;;;;;15.93;51.09;98771.66;1708752;83;20153;-77
2022/05/23 08:58:23;;;;;;;9.95;4.53;;;;;;;15.79;50.50;98762.48;1706874;83;21031;-78
2022/05/23 09:01:03;;;;;;;11.20;4.80;;;;;;;15.67;49.49;98761.95;1709679;83;21648;-77
2022/05/23 09:03:37;;;;;;;11.75;4.40;;;;;;;15.53;50.83;98763.75;1709359;82;21730;-76
2022/05/23 09:06:18;;;;;;;9.40;4.45;;;;;;;15.52;51.56;98767.34;1695474;83;21038;-75
2022/05/23 09:08:53;;;;;;;7.72;4.30;;;;;;;15.59;52.49;98768.63;1719283;82;21111;-76
2022/05/23 09:11:39;;;;;;;3.62;3.33;;;;;;;15.66;51.36;98769.55;1739397;81;21139;-76
2022/05/23 09:14:09;;;;;;;6.78;3.45;;;;;;;15.64;51.37;98774.95;1738846;81;21051;-75
2022/05/23 09:16:40;;;;;;;7.20;3.50;;;;;;;15.60;50.94;98776.96;1739067;82;21128;-75
2022/05/23 09:19:41;;;;;;;9.55;4.00;;;;;;;15.50;51.46;98773.23;1738709;81;21480;-75
2022/05/23 09:22:43;;;;;;;4.62;3.87;;;;;;;15.38;51.85;98780.20;1738806;81;21402;-74
2022/05/23 09:25:06;;;;;;;10.85;3.92;;;;;;;15.29;51.85;98781.27;1734420;81;21060;-74
2022/05/23 09:27:43;;;;;;;7.60;4.28;;;;;;;15.23;52.91;98774.11;1738985;82;21056;-76
2022/05/23 09:30:15;;;;;;;12.45;4.30;;;;;;;15.18;52.44;98777.53;1739041;81;20981;-77
2022/05/23 09:33:01;;;;;;;9.13;4.00;;;;;;;15.11;53.05;98778.86;1739025;81;21068;-75
2022/05/23 09:35:31;;;;;;;6.58;4.03;;;;;;;15.09;52.75;98779.93;1742393;81;21142;-74
2022/05/23 09:38:26;;;;;;;9.40;3.77;;;;;;;15.08;52.74;98784.39;1724317;81;21230;-75
2022/05/23 09:40:59;;;;;;;11.97;3.83;;;;;;;15.07;53.75;98777.38;1683793;81;21327;-75
2022/05/23 09:49:20;;;;;;;6.22;3.80;;;;;;;15.05;54.53;98779.28;1737303;81;21120;-75
2022/05/23 09:51:55;;;;;;;11.20;3.83;;;;;;;15.12;54.46;98781.06;1735336;81;21086;-75
2022/05/23 09:54:48;;;;;;;13.13;4.20;;;;;;;15.18;53.27;98784.16;1735717;82;21364;-75
2022/05/23 09:57:43;;;;;;;7.90;4.60;;;;;;;15.21;52.10;98781.31;1735407;81;22225;-76
2022/05/23 10:00:22;;;;;;;8.03;4.50;;;;;;;15.24;52.71;98782.89;1735566;82;21086;-77
2022/05/23 10:03:03;;;;;;;14.35;3.70;;;;;;;15.36;52.99;98778.59;1729237;82;21009;-78
2022/05/23 10:05:38;;;;;;;9.10;3.37;;;;;;;15.63;52.55;98773.72;1735554;82;21143;-78
2022/05/23 10:08:39;;;;;;;6.15;3.20;;;;;;;15.98;52.25;98777.50;1735691;82;21061;-76
2022/05/23 10:11:32;;;;;;;6.47;3.00;;;;;;;16.27;48.46;98775.98;1734139;82;20990;-77
2022/05/23 10:14:00;;;;;;;9.65;2.87;;;;;;;16.50;45.12;98769.03;1734528;82;22125;-77
2022/05/23 10:16:30;;;;;;;7.40;2.50;;;;;;;16.69;46.54;98772.56;1735492;82;21104;-75
2022/05/23 10:19:03;;;;;;;3.58;2.67;;;;;;;17.02;47.51;98763.12;1729722;82;21029;-75
2022/05/23 10:21:43;;;;;;;4.05;2.70;;;;;;;17.33;47.27;98762.66;1732236;82;21046;-76
2022/05/23 10:24:24;;;;;;;4.08;2.80;;;;;;;17.49;45.49;98762.38;1732240;82;21650;-76
2022/05/23 10:27:04;;;;;;;7.35;2.52;;;;;;;17.51;43.56;98767.09;1732435;82;21050;-76
2022/05/23 10:29:56;;;;;;;5.15;2.37;;;;;;;17.40;43.66;98776.73;1732125;82;21003;-75
2022/05/23 10:32:46;;;;;;;5.85;2.80;;;;;;;17.24;43.57;98782.81;1732263;82;21117;-76
2022/05/23 10:35:24;;;;;;;10.85;3.95;;;;;;;17.03;43.77;98794.06;1732204;82;21017;-76
2022/05/23 10:37:51;;;;;;;5.87;2.50;;;;;;;16.77;44.15;98799.05;1732075;82;21208;-75
2022/05/23 10:43:21;;;;;;;7.25;2.08;;;;;;;16.29;45.09;98807.25;1732300;82;21635;-75
2022/05/23 10:45:55;;;;;;;4.62;1.92;;;;;;;16.08;45.91;98809.56;1732357;82;21628;-76
2022/05/23 10:48:59;;;;;;;4.20;2.35;;;;;;;15.95;46.94;98806.92;1731595;82;21573;-76
2022/05/23 10:51:41;;;;;;;7.12;2.20;;;;;;;15.89;47.29;98801.18;1741535;82;21740;-76
2022/05/23 10:54:38;;;;;;;4.95;2.12;;;;;;;15.81;48.25;98800.36;1743585;82;21614;-76
2022/05/23 10:57:10;;;;;;;4.42;2.00;;;;;;;15.77;48.46;98798.89;1743460;82;21337;-75
2022/05/23 11:00:08;;;;;;;4.10;2.10;;;;;;;15.77;48.32;98802.86;1743741;82;21059;-76
2022/05/23 11:03:19;;;;;;;7.20;1.95;;;;;;;15.75;48.11;98812.67;1743542;82;21087;-76
2022/05/23 11:06:08;;;;;;;6.33;2.30;;;;;;;15.72;47.47;98808.44;1742807;82;21897;-75
2022/05/23 11:09:04;;;;;;;5.20;2.20;;;;;;;15.70;46.84;98809.02;1751279;81;21037;-77
2022/05/23 11:11:51;;;;;;;2.40;1.90;;;;;;;15.73;46.26;98813.25;1752710;81;21076;-76
2022/05/23 11:14:35;;;;;;;3.92;1.47;;;;;;;15.75;46.78;98813.57;1752357;81;22187;-76
2022/05/23 11:17:13;;;;;;;6.67;1.80;;;;;;;15.79;46.04;98811.56;1752592;81;20993;-77
2022/05/23 11:20:18;;;;;;;7.03;1.62;;;;;;;15.87;46.38;98825.16;1752045;81;21138;-76
2022/05/23 11:23:31;;;;;;;7.30;2.20;;;;;;;15.94;46.34;98818.47;1752808;81;21546;-76
2022/05/23 11:26:27;;;;;;;2.30;1.70;;;;;;;16.05;46.49;98814.23;1752420;81;20993;-75
2022/05/23 11:34:29;;;;;;;3.05;1.72;;;;;;;16.29;45.81;98812.55;1701923;81;21202;-76
2022/05/23 11:37:42;;;;;;;3.95;1.50;;;;;;;16.31;44.75;98805.33;1752317;81;21343;-76
2022/05/23 11:39:45;;;;;;;5.30;1.75;;;;;;;16.31;43.91;98809.80;1748745;81;20993;-76
2022/05/23 11:42:24;;;;;;;3.80;1.37;;;;;;;16.31;44.20;98807.98;1752392;81;21080;-76
2022/05/23 11:44:57;;;;;;;4.72;1.57;;;;;;;16.25;43.58;98809.72;1752384;81;21143;-76
2022/05/23 11:47:26;;;;;;;3.03;1.37;;;;;;;16.22;43.47;98803.30;1749602;81;21167;-76
2022/05/23 11:50:05;;;;;;;1.12;1.12;;;;;;;16.18;43.88;98812.44;1743513;81;21046;-76
2022/05/23 11:52:42;;;;;;;5.40;1.82;;;;;;;16.21;44.43;98811.39;1735512;82;21002;-76
2022/05/23 11:55:11;;;;;;;5.80;1.80;;;;;;;16.26;44.62;98808.78;1735526;82;21068;-75
2022/05/23 11:57:40;;;;;;;2.83;1.98;;;;;;;16.29;43.93;98808.58;1734919;82;21144;-76
2022/05/23 12:00:28;;;;;;;2.30;1.85;;;;;;;16.27;44.62;98806.97;1735772;82;21137;-76
2022/05/23 12:03:10;;;;;;;6.87;2.12;;;;;;;16.26;44.70;98807.45;1729760;82;21018;-76
2022/05/23 12:05:36;;;;;;;4.47;2.20;;;;;;;16.22;44.21;98811.26;1736185;82;21579;-76
2022/05/23 12:08:06;;;;;;;5.83;2.40;;;;;;;16.17;44.26;98814.70;1736030;81;21100;-76
2022/05/23 12:10:39;;;;;;;5.03;2.33;;;;;;;16.11;43.42;98813.83;1735875;82;21108;-76
2022/05/23 12:13:34;;;;;;;3.58;2.20;;;;;;;16.03;43.66;98806.38;1735770;82;21131;-76
2022/05/23 12:16:34;;;;;;;6.58;2.30;;;;;;;15.98;44.19;98813.31;1736024;82;27158;-76
2022/05/23 12:19:28;;;;;;;6.15;2.35;;;;;;;15.86;44.58;98814.16;1735519;82;21061;-76
2022/05/23 12:22:29;;;;;;;5.67;1.98;;;;;;;15.72;44.21;98804.95;1735425;81;21089;-76
2022/05/23 12:25:12;;;;;;;2.95;2.00;;;;;;;15.56;44.18;98805.10;1733525;82;21002;-76
2022/05/23 12:27:55;;;;;;;2.58;1.90;;;;;;;15.45;44.71;98813.78;1732037;82;21166;-75
2022/05/23 12:30:31;;;;;;;5.00;1.60;;;;;;;15.41;44.93;98809.61;1732603;82;20995;-76
2022/05/23 12:33:06;;;;;;;4.90;1.90;;;;;;;15.45;43.35;98800.98;1732011;82;21006;-76
2022/05/23 12:35:48;;;;;;;7.67;2.30;;;;;;;15.52;44.70;98796.51;1732053;82;21113;-76
2022/05/23 12:39:01;;;;;;;2.65;1.52;;;;;;;15.61;45.05;98793.22;1732159;82;20995;-76
2022/05/23 12:41:48;;;;;;;6.30;1.65;;;;;;;15.86;43.61;98792.94;1732248;82;21129;-76
2022/05/23 12:44:44;;;;;;;6.45;1.47;;;;;;;16.20;42.75;98795.92;1732014;82;21125;-76
2022/05/23 12:47:24;;;;;;;2.02;1.50;;;;;;;16.43;41.56;98795.66;1732218;82;21042;-75
2022/05/23 12:50:10;;;;;;;2.98;1.80;;;;;;;16.68;42.35;98805.39;1732229;82;21105;-76
2022/05/23 12:53:16;;;;;;;5.12;1.62;;;;;;;16.89;40.23;98804.84;1732090;82;21065;-77
2022/05/23 12:56:16;;;;;;;7.67;1.55;;;;;;;16.89;40.48;98806.16;1732202;82;21108;-76
2022/05/23 12:58:54;;;;;;;2.62;1.80;;;;;;;16.76;40.78;98809.30;1732311;82;21586;-76